createdAt,value
2022-11-09T00:00:19.979Z,9.35
2022-11-09T00:02:47.132Z,9.29
2022-11-09T00:05:18.172Z,9.25
2022-11-09T00:07:46.283Z,9.25
2022-11-09T00:10:10.950Z,9.17
2022-11-09T00:12:36.550Z,9.15
2022-11-09T00:15:02.476Z,9.13
2022-11-09T00:17:31.157Z,8.99
2022-11-09T00:19:59.427Z,8.84
2022-11-09T00:22:25.656Z,8.76
2022-11-09T00:24:51.142Z,8.93
2022-11-09T00:27:17.881Z,8.86
2022-11-09T00:29:43.310Z,8.76
2022-11-09T00:32:08.119Z,8.87
2022-11-09T00:34:35.321Z,8.85
2022-11-09T00:37:00.968Z,8.92
2022-11-09T00:39:25.687Z,9.16
2022-11-09T00:41:49.437Z,9.08
2022-11-09T00:44:13.570Z,9.19
2022-11-09T00:46:38.317Z,9.16
2022-11-09T00:49:03.276Z,8.99
2022-11-09T00:51:27.809Z,8.95
2022-11-09T00:53:55.118Z,9.02
2022-11-09T00:56:22.004Z,9.08
2022-11-09T00:58:46.392Z,9.01
2022-11-09T01:01:15.572Z,8.92
2022-11-09T01:03:40.568Z,8.83
2022-11-09T01:06:05.435Z,8.70
2022-11-09T01:08:29.843Z,8.61
2022-11-09T01:10:55.957Z,8.64
2022-11-09T01:13:40.684Z,8.76
2022-11-09T01:16:09.332Z,8.79
2022-11-09T01:18:37.890Z,8.79
2022-11-09T01:21:04.540Z,8.77
2022-11-09T01:23:30.039Z,8.82
2022-11-09T01:26:00.541Z,8.84
2022-11-09T01:28:27.060Z,8.89
2022-11-09T01:30:53.819Z,8.90
2022-11-09T01:33:19.653Z,8.83
2022-11-09T01:35:47.621Z,8.64
2022-11-09T01:38:12.919Z,8.47
2022-11-09T01:40:40.788Z,8.27
2022-11-09T01:43:13.532Z,8.10
2022-11-09T01:45:40.263Z,8.17
2022-11-09T01:49:53.503Z,8.33
2022-11-09T01:52:34.164Z,8.45
2022-11-09T01:55:13.080Z,8.50
2022-11-09T01:57:46.834Z,8.50
2022-11-09T02:00:16.703Z,8.43
2022-11-09T02:02:47.620Z,8.17
2022-11-09T02:05:29.801Z,8.17
2022-11-09T02:07:58.899Z,8.21
2022-11-09T02:11:59.850Z,8.27
2022-11-09T02:14:30.637Z,8.32
2022-11-09T02:16:56.347Z,8.34
2022-11-09T02:19:24.809Z,8.10
2022-11-09T02:22:22.573Z,8.11
2022-11-09T02:24:52.836Z,8.17
2022-11-09T02:26:14.854Z,8.13
2022-11-09T02:28:43.133Z,8.23
2022-11-09T02:31:14.680Z,8.25
2022-11-09T02:33:46.424Z,8.28
2022-11-09T02:36:18.399Z,8.33
2022-11-09T02:38:46.933Z,8.32
2022-11-09T02:41:18.229Z,8.19
2022-11-09T02:43:44.716Z,8.18
2022-11-09T02:46:13.538Z,8.25
2022-11-09T02:48:39.076Z,8.18
2022-11-09T02:51:04.057Z,8.14
2022-11-09T02:53:28.583Z,8.05
2022-11-09T02:55:53.987Z,8.00
2022-11-09T02:58:18.361Z,8.05
2022-11-09T03:00:43.778Z,8.07
2022-11-09T03:03:10.888Z,8.13
2022-11-09T03:05:35.620Z,8.19
2022-11-09T03:08:02.769Z,8.28
2022-11-09T03:10:30.385Z,8.30
2022-11-09T03:12:55.804Z,8.27
2022-11-09T03:15:25.552Z,8.27
2022-11-09T03:17:51.208Z,8.30
2022-11-09T03:20:15.704Z,8.29
2022-11-09T03:22:41.185Z,8.24
2022-11-09T03:25:08.365Z,8.17
2022-11-09T03:27:33.352Z,8.19
2022-11-09T03:29:58.265Z,8.17
2022-11-09T03:32:22.778Z,8.17
2022-11-09T03:34:48.720Z,8.11
2022-11-09T03:35:59.130Z,7.99
2022-11-09T03:38:25.133Z,8.08
2022-11-09T03:40:50.817Z,8.06
2022-11-09T03:43:17.093Z,8.01
2022-11-09T03:45:44.517Z,7.91
2022-11-09T03:48:09.744Z,7.84
2022-11-09T03:50:35.932Z,7.78
2022-11-09T03:53:00.623Z,7.77
2022-11-09T03:55:45.026Z,7.79
2022-11-09T03:58:13.091Z,7.79
2022-11-09T03:59:22.709Z,7.68
2022-11-09T04:01:47.848Z,7.78
2022-11-09T04:04:12.507Z,7.77
2022-11-09T04:06:37.301Z,7.80
2022-11-09T04:09:04.319Z,7.79
2022-11-09T04:11:29.514Z,7.82
2022-11-09T04:13:54.131Z,7.80
2022-11-09T04:16:18.986Z,7.79
2022-11-09T04:18:45.466Z,7.77
2022-11-09T04:21:09.623Z,7.80
2022-11-09T04:23:34.743Z,7.88
2022-11-09T04:26:00.557Z,7.89
2022-11-09T04:28:25.455Z,7.83
2022-11-09T04:30:50.148Z,7.82
2022-11-09T04:33:14.668Z,7.82
2022-11-09T04:35:40.444Z,7.78
2022-11-09T04:38:08.341Z,7.79
2022-11-09T04:40:36.666Z,7.83
2022-11-09T04:43:03.307Z,7.87
2022-11-09T04:44:12.736Z,7.78
2022-11-09T04:46:37.851Z,7.92
2022-11-09T04:49:02.642Z,7.92
2022-11-09T04:51:28.055Z,7.79
2022-11-09T04:53:53.284Z,7.64
2022-11-09T04:56:17.070Z,7.47
2022-11-09T04:58:40.820Z,7.30
2022-11-09T05:01:13.046Z,7.25
2022-11-09T05:03:39.499Z,7.24
2022-11-09T05:06:08.147Z,7.33
2022-11-09T05:08:32.010Z,7.53
2022-11-09T05:10:58.580Z,7.83
2022-11-09T05:13:23.307Z,8.10
2022-11-09T05:15:47.304Z,8.24
2022-11-09T05:18:12.109Z,8.21
2022-11-09T05:20:37.304Z,8.26
2022-11-09T05:23:20.360Z,8.58
2022-11-09T05:25:45.302Z,8.83
2022-11-09T05:28:09.840Z,9.32
2022-11-09T05:30:35.325Z,9.82
2022-11-09T05:33:02.607Z,10.22
2022-11-09T05:35:29.717Z,10.63
2022-11-09T05:37:53.462Z,10.58
2022-11-09T05:40:21.418Z,10.62
2022-11-09T05:42:46.542Z,10.55
2022-11-09T05:45:40.945Z,10.27
2022-11-09T05:50:26.778Z,9.96
2022-11-09T05:52:54.890Z,9.86
2022-11-09T05:54:03.854Z,9.67
2022-11-09T05:55:14.583Z,9.67
2022-11-09T05:56:23.508Z,9.56
2022-11-09T05:58:48.097Z,9.60
2022-11-09T05:59:57.118Z,9.42
2022-11-09T06:02:25.420Z,9.32
2022-11-09T06:04:51.240Z,9.29
2022-11-09T06:06:08.079Z,9.16
2022-11-09T06:08:30.273Z,9.24
2022-11-09T06:12:20.217Z,9.18
2022-11-09T06:14:46.106Z,9.25
2022-11-09T06:17:12.080Z,9.20
2022-11-09T06:18:22.763Z,9.10
2022-11-09T06:21:06.592Z,9.25
2022-11-09T06:23:31.136Z,9.40
2022-11-09T06:24:40.821Z,9.28
2022-11-09T06:27:05.965Z,9.47
2022-11-09T06:28:14.613Z,9.41
2022-11-09T06:29:23.388Z,9.45
2022-11-09T06:30:32.227Z,9.45
2022-11-09T06:31:43.102Z,9.46
2022-11-09T06:34:08.793Z,9.57
2022-11-09T06:36:33.728Z,9.54
2022-11-09T06:37:43.457Z,9.42
2022-11-09T06:38:53.357Z,9.40
2022-11-09T06:40:02.540Z,9.40
2022-11-09T06:41:11.290Z,9.42
2022-11-09T06:42:20.508Z,9.42
2022-11-09T06:43:29.573Z,9.43
2022-11-09T06:44:39.499Z,9.47
2022-11-09T06:47:03.381Z,9.68
2022-11-09T06:48:13.098Z,9.61
2022-11-09T06:50:44.284Z,9.76
2022-11-09T06:53:12.381Z,9.83
2022-11-09T06:54:21.033Z,9.73
2022-11-09T06:55:31.908Z,9.79
2022-11-09T06:56:41.626Z,9.84
2022-11-09T06:57:50.807Z,9.89
2022-11-09T06:58:59.452Z,9.94
2022-11-09T07:01:28.789Z,10.15
2022-11-09T07:03:52.340Z,10.23
2022-11-09T07:05:02.160Z,10.17
2022-11-09T07:06:13.541Z,10.18
2022-11-09T07:08:38.553Z,10.36
2022-11-09T07:12:43.388Z,10.30
2022-11-09T07:15:10.255Z,10.34
2022-11-09T07:17:40.231Z,10.36
2022-11-09T07:18:53.434Z,10.28
2022-11-09T07:20:03.398Z,10.31
2022-11-09T07:22:29.976Z,10.44
2022-11-09T07:23:42.381Z,10.32
2022-11-09T07:24:55.431Z,10.33
2022-11-09T07:26:04.561Z,10.34
2022-11-09T07:27:14.265Z,10.36
2022-11-09T07:28:22.887Z,10.38
2022-11-09T07:29:31.607Z,10.40
2022-11-09T07:32:03.439Z,10.56
2022-11-09T07:34:34.660Z,10.63
2022-11-09T07:36:58.944Z,10.67
2022-11-09T07:38:09.811Z,10.56
2022-11-09T07:39:18.870Z,10.56
2022-11-09T07:40:28.355Z,10.58
2022-11-09T07:42:52.066Z,10.72
2022-11-09T07:44:01.243Z,10.60
2022-11-09T07:46:28.642Z,10.73
2022-11-09T07:47:37.657Z,10.62
2022-11-09T07:50:01.405Z,10.73
2022-11-09T07:51:11.252Z,10.62
2022-11-09T07:52:20.099Z,10.65
2022-11-09T07:54:48.235Z,10.77
2022-11-09T07:55:59.851Z,10.64
2022-11-09T07:57:08.911Z,10.63
2022-11-09T07:58:18.980Z,10.63
2022-11-09T08:00:43.657Z,10.82
2022-11-09T08:01:53.124Z,10.76
2022-11-09T08:03:03.999Z,10.82
2022-11-09T08:05:29.868Z,10.99
2022-11-09T08:06:39.309Z,10.91
2022-11-09T08:07:49.342Z,10.94
2022-11-09T08:08:59.586Z,10.98
2022-11-09T08:11:27.248Z,11.13
2022-11-09T08:13:51.105Z,11.18
2022-11-09T08:15:01.948Z,11.09
2022-11-09T08:17:26.234Z,11.26
2022-11-09T08:18:35.930Z,11.19
2022-11-09T08:21:03.578Z,11.38
2022-11-09T08:23:28.255Z,11.46
2022-11-09T08:24:37.435Z,11.38
2022-11-09T08:25:48.436Z,11.41
2022-11-09T08:28:15.665Z,11.60
2022-11-09T08:30:39.813Z,11.68
2022-11-09T08:31:53.012Z,11.57
2022-11-09T08:33:03.260Z,11.60
2022-11-09T08:35:29.848Z,11.74
2022-11-09T08:37:55.522Z,11.75
2022-11-09T08:41:38.056Z,11.84
2022-11-09T08:42:47.778Z,11.75
2022-11-09T08:45:13.432Z,11.91
2022-11-09T08:46:22.849Z,11.81
2022-11-09T08:48:47.800Z,11.94
2022-11-09T08:51:11.376Z,11.98
2022-11-09T08:53:35.217Z,11.98
2022-11-09T08:54:44.072Z,11.83
2022-11-09T08:57:08.291Z,11.99
2022-11-09T08:58:19.129Z,11.93
2022-11-09T09:00:47.437Z,12.12
2022-11-09T09:02:00.665Z,12.02
2022-11-09T09:04:26.860Z,12.18
2022-11-09T09:05:37.865Z,12.07
2022-11-09T09:08:03.852Z,12.26
2022-11-09T09:10:29.215Z,12.34
2022-11-09T09:11:37.848Z,12.24
2022-11-09T09:12:47.424Z,12.26
2022-11-09T09:15:12.441Z,12.43
2022-11-09T09:17:37.258Z,12.43
2022-11-09T09:18:49.188Z,12.33
2022-11-09T09:19:57.801Z,12.32
2022-11-09T09:21:14.272Z,12.33
2022-11-09T09:22:25.088Z,12.28
2022-11-09T09:24:53.030Z,12.40
2022-11-09T09:27:23.051Z,12.40
2022-11-09T09:28:33.265Z,12.34
2022-11-09T09:29:44.626Z,12.34
2022-11-09T09:30:53.966Z,12.36
2022-11-09T09:33:37.568Z,12.42
2022-11-09T09:34:46.918Z,12.36
2022-11-09T09:37:13.558Z,12.55
2022-11-09T09:38:24.167Z,12.49
2022-11-09T09:40:44.930Z,12.52
2022-11-09T09:43:17.083Z,12.70
2022-11-09T09:45:54.396Z,12.80
2022-11-09T09:48:56.934Z,13.02
2022-11-09T09:51:44.425Z,13.09
2022-11-09T09:54:21.648Z,13.17
2022-11-09T09:55:42.896Z,13.07
2022-11-09T09:58:31.593Z,13.13
2022-11-09T10:02:24.347Z,13.14
2022-11-09T10:03:34.276Z,13.00
2022-11-09T10:04:43.729Z,13.01
2022-11-09T10:06:04.071Z,13.01
2022-11-09T10:08:59.103Z,13.00
2022-11-09T10:11:31.690Z,13.07
2022-11-09T10:12:56.885Z,12.95
2022-11-09T10:15:35.691Z,13.01
2022-11-09T10:18:33.637Z,13.01
2022-11-09T10:20:15.663Z,12.86
2022-11-09T10:21:43.795Z,12.84
2022-11-09T10:27:35.832Z,12.93
2022-11-09T10:29:14.426Z,12.83
2022-11-09T10:30:02.062Z,12.84
2022-11-09T10:32:33.009Z,12.99
2022-11-09T10:33:43.880Z,12.88
2022-11-09T10:35:06.342Z,12.89
2022-11-09T10:37:42.811Z,12.95
2022-11-09T10:38:56.744Z,12.86
2022-11-09T10:41:48.658Z,13.04
2022-11-09T10:43:15.566Z,12.95
2022-11-09T10:44:42.810Z,12.93
2022-11-09T10:47:26.041Z,13.08
2022-11-09T10:48:55.517Z,12.99
2022-11-09T10:51:51.656Z,13.05
2022-11-09T10:54:40.246Z,13.04
2022-11-09T10:56:20.974Z,12.92
2022-11-09T10:58:01.154Z,12.95
2022-11-09T10:59:39.834Z,12.96
2022-11-09T11:01:16.234Z,12.93
2022-11-09T11:02:46.632Z,12.97
2022-11-09T11:04:23.987Z,13.00
2022-11-09T11:06:01.323Z,12.98
2022-11-09T11:10:22.340Z,13.12
2022-11-09T11:13:12.377Z,13.12
2022-11-09T11:14:45.187Z,13.01
2022-11-09T11:16:28.542Z,13.03
2022-11-09T11:18:19.221Z,13.03
2022-11-09T11:19:47.254Z,13.01
2022-11-09T11:22:37.721Z,13.09
2022-11-09T11:24:20.430Z,13.00
2022-11-09T11:27:19.724Z,13.09
2022-11-09T11:28:51.524Z,12.98
2022-11-09T11:31:40.664Z,13.03
2022-11-09T11:33:17.732Z,12.96
2022-11-09T11:34:59.566Z,12.98
2022-11-09T11:38:11.674Z,13.13
2022-11-09T11:40:01.789Z,13.03
2022-11-09T11:41:48.078Z,13.04
2022-11-09T11:43:28.468Z,13.03
2022-11-09T11:46:42.930Z,13.11
2022-11-09T11:50:27.968Z,13.08
2022-11-09T11:55:16.771Z,13.06
2022-11-09T12:00:11.579Z,13.07
2022-11-09T12:03:33.158Z,13.02
2022-11-09T14:25:54.842Z,11.58
2022-11-09T14:30:39.606Z,11.53
2022-11-09T14:34:02.043Z,11.53
2022-11-09T14:36:50.247Z,11.50
2022-11-09T14:38:22.542Z,11.36
2022-11-09T14:39:51.936Z,11.35
2022-11-09T14:41:27.073Z,11.34
2022-11-09T14:44:21.953Z,11.42
2022-11-09T14:47:18.159Z,11.41
2022-11-09T14:51:38.771Z,11.34
2022-11-09T14:53:06.731Z,11.22
2022-11-09T14:54:34.784Z,11.20
2022-11-09T14:56:05.807Z,11.19
2022-11-09T14:57:33.945Z,11.18
2022-11-09T15:00:28.525Z,11.24
2022-11-09T15:03:29.949Z,11.20
2022-11-09T15:06:19.726Z,11.15
2022-11-09T15:07:48.412Z,11.02
2022-11-09T15:10:36.975Z,11.06
2022-11-09T15:14:58.087Z,11.02
2022-11-09T15:16:33.168Z,10.90
2022-11-09T15:18:00.957Z,10.87
2022-11-09T15:20:47.402Z,10.87
2022-11-09T15:22:52.169Z,10.75
2022-11-09T15:24:21.324Z,10.69
2022-11-09T15:27:27.323Z,10.72
2022-11-09T15:28:55.138Z,10.56
2022-11-09T15:32:11.379Z,10.63
2022-11-09T15:35:06.138Z,10.56
2022-11-09T15:37:53.356Z,10.50
2022-11-09T15:40:39.163Z,10.43
2022-11-09T15:43:43.718Z,10.37
2022-11-09T15:46:36.353Z,10.29
2022-11-09T15:49:24.611Z,10.26
2022-11-09T15:52:11.571Z,10.20
2022-11-09T15:54:54.480Z,10.15
2022-11-09T15:56:24.143Z,10.02
2022-11-09T15:57:54.322Z,9.98
2022-11-09T16:00:46.020Z,10.01
2022-11-09T16:02:14.576Z,9.86
2022-11-09T16:04:56.685Z,9.93
2022-11-09T16:07:53.877Z,9.93
2022-11-09T16:10:39.644Z,9.90
2022-11-09T16:12:08.673Z,9.80
2022-11-09T16:14:50.522Z,9.89
2022-11-09T16:17:34.129Z,9.83
2022-11-09T16:19:01.496Z,9.71
2022-11-09T16:20:29.758Z,9.69
2022-11-09T16:23:16.075Z,9.78
2022-11-09T16:26:10.794Z,9.70
2022-11-09T16:28:55.726Z,9.63
2022-11-09T16:30:24.138Z,9.50
2022-11-09T16:31:52.734Z,9.48
2022-11-09T16:34:34.880Z,9.51
2022-11-09T16:37:31.885Z,9.45
2022-11-09T16:40:18.979Z,9.43
2022-11-09T16:43:03.799Z,9.39
2022-11-09T16:45:51.872Z,9.38
2022-11-09T16:48:37.098Z,9.35
2022-11-09T16:51:19.885Z,9.31
2022-11-09T16:54:21.150Z,9.27
2022-11-09T16:57:04.432Z,9.23
2022-11-09T16:59:46.201Z,9.17
2022-11-09T17:02:29.081Z,9.18
2022-11-09T17:05:13.398Z,9.14
2022-11-09T17:08:18.483Z,9.13
2022-11-09T17:11:05.779Z,9.07
2022-11-09T17:13:59.221Z,9.02
2022-11-09T17:16:41.989Z,8.99
2022-11-09T17:20:49.797Z,8.93
2022-11-09T17:23:33.396Z,8.87
2022-11-09T17:26:17.377Z,8.83
2022-11-09T17:28:59.932Z,8.79
2022-11-09T17:31:41.902Z,8.76
2022-11-09T17:33:10.083Z,8.63
2022-11-09T17:36:00.989Z,8.70
2022-11-09T17:38:43.509Z,8.64
2022-11-09T17:41:26.336Z,8.61
2022-11-09T17:44:09.091Z,8.58
2022-11-09T17:46:52.907Z,8.56
2022-11-09T17:48:21.450Z,8.44
2022-11-09T17:51:24.756Z,8.51
2022-11-09T17:54:06.969Z,8.48
2022-11-09T17:55:36.798Z,8.36
2022-11-09T17:58:20.791Z,8.44
2022-11-09T17:59:48.602Z,8.33
2022-11-09T18:01:19.927Z,8.30
2022-11-09T18:04:07.435Z,8.36
2022-11-09T18:05:40.675Z,8.24
2022-11-09T18:08:22.874Z,8.32
2022-11-09T18:11:06.588Z,8.29
2022-11-09T18:13:49.350Z,8.26
2022-11-09T18:16:31.017Z,8.21
2022-11-09T18:17:58.595Z,8.09
2022-11-09T18:20:40.702Z,8.11
2022-11-09T18:23:25.258Z,8.09
2022-11-09T18:26:09.202Z,8.09
2022-11-09T18:27:38.925Z,7.97
2022-11-09T18:30:23.339Z,8.09
2022-11-09T18:31:53.667Z,7.98
2022-11-09T18:33:20.549Z,7.97
2022-11-09T18:36:07.005Z,8.08
2022-11-09T18:38:52.506Z,8.07
2022-11-09T18:41:36.944Z,8.06
2022-11-09T18:44:20.110Z,7.99
2022-11-09T18:45:59.214Z,7.89
2022-11-09T18:48:42.534Z,7.95
2022-11-09T18:51:25.000Z,7.94
2022-11-09T18:54:07.480Z,7.91
2022-11-09T18:55:35.029Z,7.81
2022-11-09T18:58:20.843Z,7.88
2022-11-09T19:01:05.758Z,7.86
2022-11-09T19:03:56.288Z,7.82
2022-11-09T19:05:24.568Z,7.69
2022-11-09T19:06:53.549Z,7.67
2022-11-09T19:09:38.288Z,7.80
2022-11-09T19:12:24.747Z,7.80
2022-11-09T19:13:52.137Z,7.70
2022-11-09T19:16:34.200Z,7.79
2022-11-09T19:19:17.954Z,7.75
2022-11-09T19:20:46.818Z,7.63
2022-11-09T19:22:18.668Z,7.60
2022-11-09T19:25:00.810Z,7.67
2022-11-09T19:27:43.777Z,7.67
2022-11-09T19:30:29.181Z,7.70
2022-11-09T19:31:57.211Z,7.57
2022-11-09T19:34:42.247Z,7.64
2022-11-09T19:37:26.117Z,7.62
2022-11-09T19:38:55.160Z,7.50
2022-11-09T19:41:37.409Z,7.60
2022-11-09T19:44:20.283Z,7.57
2022-11-09T19:45:47.280Z,7.43
2022-11-09T19:47:14.089Z,7.43
2022-11-09T19:48:46.933Z,7.41
2022-11-09T19:51:31.484Z,7.48
2022-11-09T19:52:59.345Z,7.37
2022-11-09T19:54:26.471Z,7.40
2022-11-09T19:56:01.899Z,7.34
2022-11-09T20:00:12.337Z,7.41
2022-11-09T20:02:58.486Z,7.38
2022-11-09T20:05:41.823Z,7.36
2022-11-09T20:08:28.165Z,7.32
2022-11-09T20:11:18.367Z,7.34
2022-11-09T20:12:51.231Z,7.23
2022-11-09T20:14:20.367Z,7.23
2022-11-09T20:17:04.416Z,7.34
2022-11-09T20:19:53.356Z,7.37
2022-11-09T20:22:35.768Z,7.37
2022-11-09T20:25:19.262Z,7.38
2022-11-09T20:28:02.207Z,7.37
2022-11-09T20:30:46.211Z,7.37
2022-11-09T20:33:28.800Z,7.36
2022-11-09T20:36:11.755Z,7.37
2022-11-09T20:37:39.027Z,7.26
2022-11-09T20:39:06.206Z,7.23
2022-11-09T20:41:48.849Z,7.30
2022-11-09T20:44:30.609Z,7.29
2022-11-09T20:47:30.295Z,7.27
2022-11-09T20:50:04.270Z,7.26
2022-11-09T20:52:46.944Z,7.24
2022-11-09T20:55:31.004Z,7.25
2022-11-09T20:56:59.478Z,7.15
2022-11-09T20:58:27.109Z,7.15
2022-11-09T21:02:31.672Z,7.26
2022-11-09T21:05:13.846Z,7.23
2022-11-09T21:07:55.941Z,7.19
2022-11-09T21:10:37.913Z,7.15
2022-11-09T21:13:36.167Z,7.13
2022-11-09T21:15:04.144Z,7.02
2022-11-09T21:16:32.267Z,7.02
2022-11-09T21:19:15.448Z,7.29
2022-11-09T21:21:59.703Z,7.51
2022-11-09T21:23:28.174Z,7.50
2022-11-09T21:26:47.374Z,7.81
2022-11-09T21:29:52.536Z,7.80
2022-11-09T21:31:21.570Z,7.65
2022-11-09T21:32:49.770Z,7.59
2022-11-09T21:35:31.609Z,7.56
2022-11-09T21:38:34.149Z,7.44
2022-11-09T21:40:02.173Z,7.31
2022-11-09T21:42:56.424Z,7.30
2022-11-09T21:45:40.579Z,7.26
2022-11-09T21:47:08.488Z,7.14
2022-11-09T21:49:50.438Z,7.24
2022-11-09T21:52:32.229Z,7.28
2022-11-09T21:53:59.875Z,7.14
2022-11-09T21:56:43.628Z,7.19
2022-11-09T21:58:11.844Z,7.09
2022-11-09T22:00:53.927Z,7.38
2022-11-09T22:02:22.464Z,7.34
2022-11-09T22:03:51.500Z,7.44
2022-11-09T22:05:22.820Z,7.57
2022-11-09T22:08:33.983Z,7.76
2022-11-09T22:11:27.451Z,7.82
2022-11-09T22:14:44.943Z,7.63
2022-11-09T22:16:14.720Z,7.45
2022-11-09T22:19:17.359Z,7.33
2022-11-09T22:20:54.949Z,7.16
2022-11-09T22:23:37.868Z,7.12
2022-11-09T22:26:23.326Z,7.04
2022-11-09T22:27:51.511Z,6.88
2022-11-09T22:29:19.564Z,6.85
2022-11-09T22:30:46.694Z,6.81
2022-11-09T22:33:32.591Z,6.90
2022-11-09T22:36:15.895Z,7.08
2022-11-09T22:37:43.898Z,7.08
2022-11-09T22:40:27.513Z,7.43
2022-11-09T22:43:10.997Z,7.62
2022-11-09T22:44:40.189Z,7.57
2022-11-09T22:46:16.994Z,7.67
2022-11-09T22:48:59.731Z,7.73
2022-11-09T22:51:42.548Z,7.53
2022-11-09T22:54:25.161Z,7.37
2022-11-09T22:57:10.987Z,7.19
2022-11-09T22:59:53.695Z,7.05
2022-11-09T23:01:22.370Z,6.90
2022-11-09T23:02:50.436Z,6.83
2022-11-09T23:05:32.806Z,6.87
2022-11-09T23:08:16.583Z,7.01
2022-11-09T23:09:43.895Z,6.97
2022-11-09T23:11:15.168Z,7.13
2022-11-09T23:13:58.293Z,7.48
2022-11-09T23:16:42.960Z,7.67
2022-11-09T23:19:43.498Z,7.81
2022-11-09T23:21:11.817Z,7.68
2022-11-09T23:23:56.597Z,7.57
2022-11-09T23:25:42.656Z,7.38
2022-11-09T23:27:10.833Z,7.23
2022-11-09T23:29:54.103Z,7.08
2022-11-09T23:31:26.812Z,6.92
2022-11-09T23:32:54.069Z,6.88
2022-11-09T23:35:35.966Z,6.86
2022-11-09T23:37:02.846Z,6.73
2022-11-09T23:39:48.413Z,6.80
2022-11-09T23:42:30.812Z,6.95
2022-11-09T23:43:57.883Z,6.94
2022-11-09T23:46:40.675Z,7.29
2022-11-09T23:48:14.179Z,7.24
2022-11-09T23:49:41.229Z,7.31
2022-11-09T23:51:10.395Z,7.42
2022-11-09T23:52:38.142Z,7.51
2022-11-09T23:54:05.292Z,7.55
2022-11-09T23:55:32.305Z,7.49
2022-11-09T23:57:01.006Z,7.40
2022-11-09T23:58:29.408Z,7.30
2022-11-09T23:59:56.622Z,7.22
